createdAt,value
2018-03-22T00:00:13.437Z,-3.80
2018-03-22T00:02:40.800Z,-3.81
2018-03-22T00:05:08.932Z,-3.75
2018-03-22T00:07:36.270Z,-3.82
2018-03-22T00:10:04.359Z,-3.86
2018-03-22T00:12:31.750Z,-3.84
2018-03-22T00:14:59.307Z,-3.87
2018-03-22T00:17:26.656Z,-3.90
2018-03-22T00:19:54.259Z,-4.00
2018-03-22T00:22:37.898Z,-4.13
2018-03-22T00:25:05.297Z,-4.16
2018-03-22T00:27:32.670Z,-4.17
2018-03-22T00:30:00.014Z,-4.17
2018-03-22T00:32:27.397Z,-4.14
2018-03-22T00:34:54.698Z,-4.18
2018-03-22T00:37:22.032Z,-4.19
2018-03-22T00:39:50.090Z,-4.17
2018-03-22T00:42:17.438Z,-4.18
2018-03-22T00:44:44.822Z,-4.26
2018-03-22T00:47:12.673Z,-4.27
2018-03-22T00:49:40.749Z,-4.26
2018-03-22T00:52:08.122Z,-4.31
2018-03-22T00:54:35.438Z,-4.26
2018-03-22T00:57:02.781Z,-4.38
2018-03-22T00:59:30.144Z,-4.47
2018-03-22T01:01:57.508Z,-4.51
2018-03-22T01:04:24.833Z,-4.41
2018-03-22T01:06:52.174Z,-4.43
2018-03-22T01:09:19.559Z,-4.49
2018-03-22T01:11:46.882Z,-4.55
2018-03-22T01:14:14.236Z,-4.54
2018-03-22T01:16:41.569Z,-4.65
2018-03-22T01:19:08.915Z,-4.60
2018-03-22T01:21:36.226Z,-4.53
2018-03-22T01:24:03.557Z,-4.66
2018-03-22T01:26:30.888Z,-4.59
2018-03-22T01:28:58.295Z,-4.62
2018-03-22T01:31:25.659Z,-4.54
2018-03-22T01:33:52.984Z,-4.49
2018-03-22T01:36:20.418Z,-4.58
2018-03-22T01:38:47.734Z,-4.58
2018-03-22T01:41:15.087Z,-4.63
2018-03-22T01:43:43.447Z,-4.66
2018-03-22T01:46:11.570Z,-4.73
2018-03-22T01:48:39.015Z,-4.82
2018-03-22T01:51:06.399Z,-4.88
2018-03-22T01:53:33.763Z,-4.84
2018-03-22T01:56:01.431Z,-4.65
2018-03-22T01:58:28.844Z,-4.54
2018-03-22T02:00:56.198Z,-4.47
2018-03-22T02:03:23.534Z,-4.67
2018-03-22T02:05:52.506Z,-4.74
2018-03-22T02:08:19.853Z,-4.78
2018-03-22T02:10:47.169Z,-4.80
2018-03-22T02:13:14.495Z,-4.83
2018-03-22T02:15:41.839Z,-4.85
2018-03-22T02:18:09.916Z,-4.86
2018-03-22T02:20:37.400Z,-4.83
2018-03-22T02:23:04.749Z,-4.81
2018-03-22T02:25:32.060Z,-4.80
2018-03-22T02:28:00.175Z,-4.70
2018-03-22T02:30:27.514Z,-4.72
2018-03-22T02:32:54.864Z,-4.72
2018-03-22T02:35:22.182Z,-4.56
2018-03-22T02:37:49.516Z,-4.69
2018-03-22T02:40:16.848Z,-4.64
2018-03-22T02:42:44.252Z,-4.80
2018-03-22T02:45:11.571Z,-4.77
2018-03-22T02:47:39.150Z,-4.70
2018-03-22T02:50:06.495Z,-4.68
2018-03-22T02:52:33.831Z,-4.66
2018-03-22T02:55:01.151Z,-4.78
2018-03-22T02:57:28.608Z,-4.87
2018-03-22T02:59:56.330Z,-5.10
2018-03-22T03:02:23.631Z,-4.94
2018-03-22T03:04:50.971Z,-4.97
2018-03-22T03:07:18.283Z,-4.96
2018-03-22T03:09:45.612Z,-5.22
2018-03-22T03:12:12.931Z,-5.41
2018-03-22T03:14:41.016Z,-5.49
2018-03-22T03:17:08.391Z,-5.48
2018-03-22T03:19:35.746Z,-5.46
2018-03-22T03:22:03.058Z,-5.40
2018-03-22T03:24:30.393Z,-5.28
2018-03-22T03:26:57.737Z,-5.35
2018-03-22T03:29:25.771Z,-5.37
2018-03-22T03:31:53.086Z,-5.28
2018-03-22T03:34:21.266Z,-5.08
2018-03-22T03:36:49.327Z,-5.12
2018-03-22T03:39:16.652Z,-5.23
2018-03-22T03:41:43.984Z,-5.32
2018-03-22T03:44:11.354Z,-5.48
2018-03-22T03:46:38.680Z,-5.54
2018-03-22T03:49:06.002Z,-5.53
2018-03-22T03:51:33.314Z,-5.65
2018-03-22T03:54:00.633Z,-5.52
2018-03-22T03:56:28.019Z,-5.56
2018-03-22T03:58:55.359Z,-5.61
2018-03-22T04:01:22.748Z,-5.78
2018-03-22T04:03:50.146Z,-5.69
2018-03-22T04:06:17.515Z,-5.67
2018-03-22T04:08:44.868Z,-5.75
2018-03-22T04:11:12.253Z,-5.53
2018-03-22T04:13:39.630Z,-5.46
2018-03-22T04:16:07.069Z,-5.56
2018-03-22T04:18:34.413Z,-5.64
2018-03-22T04:21:01.746Z,-5.55
2018-03-22T04:23:29.146Z,-5.61
2018-03-22T04:25:56.719Z,-5.75
2018-03-22T04:28:24.047Z,-5.68
2018-03-22T04:30:51.367Z,-5.70
2018-03-22T04:33:18.722Z,-5.83
2018-03-22T04:35:46.057Z,-5.84
2018-03-22T04:38:13.392Z,-5.79
2018-03-22T04:40:40.699Z,-5.77
2018-03-22T04:43:08.050Z,-5.77
2018-03-22T04:45:35.403Z,-5.75
2018-03-22T04:48:02.800Z,-5.61
2018-03-22T04:50:31.043Z,-5.68
2018-03-22T04:52:58.494Z,-5.65
2018-03-22T04:55:25.937Z,-5.35
2018-03-22T04:57:53.292Z,-5.41
2018-03-22T05:00:20.663Z,-5.41
2018-03-22T05:02:48.030Z,-5.53
2018-03-22T05:05:15.374Z,-5.74
2018-03-22T05:07:42.717Z,-5.65
2018-03-22T05:10:10.035Z,-5.68
2018-03-22T05:12:38.499Z,-5.76
2018-03-22T05:15:06.570Z,-5.89
2018-03-22T05:17:33.918Z,-5.97
2018-03-22T05:20:01.294Z,-6.06
2018-03-22T05:22:28.607Z,-6.13
2018-03-22T05:24:55.959Z,-6.15
2018-03-22T05:27:23.263Z,-6.16
2018-03-22T05:29:50.581Z,-6.10
2018-03-22T05:32:17.894Z,-6.09
2018-03-22T05:34:45.417Z,-6.13
2018-03-22T05:37:12.753Z,-6.17
2018-03-22T05:39:40.138Z,-6.05
2018-03-22T05:42:07.519Z,-6.04
2018-03-22T05:44:34.905Z,-5.95
2018-03-22T05:47:02.332Z,-5.99
2018-03-22T05:49:31.690Z,-5.97
2018-03-22T05:51:59.441Z,-5.98
2018-03-22T05:54:27.546Z,-5.92
2018-03-22T05:56:54.858Z,-5.76
2018-03-22T05:59:22.230Z,-5.38
2018-03-22T06:01:49.580Z,-4.82
2018-03-22T06:04:17.771Z,-4.65
2018-03-22T06:06:45.094Z,-4.30
2018-03-22T06:09:12.430Z,-4.06
2018-03-22T06:11:39.770Z,-3.99
2018-03-22T06:14:07.139Z,-3.56
2018-03-22T06:16:34.463Z,-3.35
2018-03-22T06:19:01.797Z,-3.07
2018-03-22T06:21:29.160Z,-2.48
2018-03-22T06:23:57.459Z,-2.40
2018-03-22T06:26:25.175Z,-2.11
2018-03-22T06:28:52.830Z,-1.79
2018-03-22T06:31:20.179Z,-1.67
2018-03-22T06:33:47.545Z,-1.86
2018-03-22T06:36:15.612Z,-2.12
2018-03-22T06:38:43.693Z,-2.30
2018-03-22T06:41:11.732Z,-2.18
2018-03-22T06:43:39.070Z,-1.78
2018-03-22T06:46:06.458Z,-1.42
2018-03-22T06:48:34.538Z,-0.89
2018-03-22T06:51:02.899Z,-0.29
2018-03-22T06:53:30.255Z,-0.08
2018-03-22T06:55:57.651Z,0.40
2018-03-22T06:58:25.028Z,0.71
2018-03-22T07:00:53.322Z,0.46
2018-03-22T07:03:20.656Z,0.68
2018-03-22T07:05:47.989Z,1.41
2018-03-22T07:08:16.542Z,2.18
2018-03-22T07:10:43.947Z,2.21
2018-03-22T07:13:12.261Z,1.89
2018-03-22T07:15:39.591Z,1.73
2018-03-22T07:18:06.928Z,1.44
2018-03-22T07:20:34.269Z,1.45
2018-03-22T07:23:01.639Z,1.47
2018-03-22T07:25:28.971Z,1.42
2018-03-22T07:27:56.343Z,1.61
2018-03-22T07:30:23.672Z,1.95
2018-03-22T07:32:51.058Z,1.96
2018-03-22T07:35:18.470Z,1.49
2018-03-22T07:37:45.879Z,1.08
2018-03-22T07:40:13.231Z,0.71
2018-03-22T07:42:40.618Z,0.57
2018-03-22T07:45:08.896Z,0.22
2018-03-22T07:47:36.251Z,0.26
2018-03-22T07:50:03.619Z,0.17
2018-03-22T07:52:30.986Z,0.37
2018-03-22T07:54:58.375Z,0.24
2018-03-22T07:57:25.742Z,0.50
2018-03-22T07:59:53.132Z,0.85
2018-03-22T08:02:20.469Z,1.37
2018-03-22T08:04:47.853Z,1.53
2018-03-22T08:07:15.935Z,1.58
2018-03-22T08:09:44.394Z,1.84
2018-03-22T08:12:11.715Z,2.01
2018-03-22T08:14:39.071Z,2.21
2018-03-22T08:17:06.399Z,2.57
2018-03-22T08:19:34.118Z,2.75
2018-03-22T08:22:01.466Z,3.49
2018-03-22T08:24:28.850Z,4.50
2018-03-22T08:26:56.182Z,4.99
2018-03-22T08:29:23.474Z,5.32
2018-03-22T08:31:51.634Z,5.50
2018-03-22T08:34:19.826Z,6.07
2018-03-22T08:36:47.269Z,6.02
2018-03-22T08:39:14.625Z,6.49
2018-03-22T08:41:41.971Z,6.12
2018-03-22T08:44:10.037Z,7.10
2018-03-22T08:46:38.286Z,7.64
2018-03-22T08:49:05.624Z,8.83
2018-03-22T08:51:33.024Z,9.40
2018-03-22T08:54:00.864Z,9.26
2018-03-22T08:56:28.210Z,8.45
2018-03-22T08:58:55.528Z,8.10
2018-03-22T09:01:23.234Z,8.60
2018-03-22T09:03:50.570Z,7.97
2018-03-22T09:06:17.933Z,8.48
2018-03-22T09:08:45.288Z,9.70
2018-03-22T09:11:12.614Z,10.76
2018-03-22T09:13:40.840Z,12.11
2018-03-22T09:16:08.205Z,12.04
2018-03-22T09:18:35.530Z,12.33
2018-03-22T09:21:02.851Z,12.13
2018-03-22T09:23:30.171Z,12.03
2018-03-22T09:25:57.570Z,11.27
2018-03-22T09:28:24.969Z,10.38
2018-03-22T09:30:52.330Z,9.70
2018-03-22T09:33:19.675Z,9.09
2018-03-22T09:35:47.018Z,8.18
2018-03-22T09:38:14.348Z,7.94
2018-03-22T09:40:41.679Z,7.29
2018-03-22T09:43:09.027Z,7.06
2018-03-22T09:45:36.375Z,7.20
2018-03-22T09:48:03.755Z,7.60
2018-03-22T09:50:31.113Z,7.63
2018-03-22T09:52:58.521Z,7.61
2018-03-22T09:55:26.571Z,7.26
2018-03-22T09:57:53.926Z,8.40
2018-03-22T10:00:21.264Z,9.26
2018-03-22T10:02:48.669Z,9.23
2018-03-22T10:05:15.955Z,9.01
2018-03-22T10:07:43.328Z,9.05
2018-03-22T10:10:10.714Z,9.09
2018-03-22T10:12:38.054Z,9.06
2018-03-22T10:15:06.142Z,9.20
2018-03-22T10:17:34.277Z,9.46
2018-03-22T10:20:01.717Z,9.60
2018-03-22T10:22:30.044Z,9.31
2018-03-22T10:24:57.379Z,8.99
2018-03-22T10:27:24.722Z,9.15
2018-03-22T10:29:52.156Z,9.23
2018-03-22T10:32:19.573Z,8.92
2018-03-22T10:34:47.656Z,8.64
2018-03-22T10:37:14.996Z,8.30
2018-03-22T10:39:43.096Z,7.58
2018-03-22T10:42:10.442Z,7.11
2018-03-22T10:44:37.801Z,6.94
2018-03-22T10:47:05.124Z,7.03
2018-03-22T10:49:32.463Z,6.73
2018-03-22T10:51:59.821Z,6.78
2018-03-22T10:54:27.196Z,6.69
2018-03-22T10:56:55.263Z,7.12
2018-03-22T10:59:22.900Z,7.30
2018-03-22T11:01:56.294Z,7.52
2018-03-22T11:04:23.841Z,7.49
2018-03-22T11:06:51.165Z,7.26
2018-03-22T11:09:18.535Z,7.18
2018-03-22T11:11:46.092Z,7.49
2018-03-22T11:14:13.444Z,7.87
2018-03-22T11:16:40.781Z,7.87
2018-03-22T11:19:08.145Z,7.68
2018-03-22T11:21:35.510Z,7.34
2018-03-22T11:24:03.560Z,6.99
2018-03-22T11:26:30.963Z,6.84
2018-03-22T11:28:58.405Z,7.14
2018-03-22T11:31:26.131Z,6.93
2018-03-22T11:33:53.514Z,7.15
2018-03-22T11:36:20.887Z,6.87
2018-03-22T11:38:48.258Z,6.93
2018-03-22T11:41:15.661Z,6.43
2018-03-22T11:43:43.039Z,6.10
2018-03-22T11:46:10.391Z,6.26
2018-03-22T11:48:37.749Z,6.20
2018-03-22T11:51:05.125Z,6.00
2018-03-22T11:53:33.038Z,6.23
2018-03-22T11:56:00.415Z,6.39
2018-03-22T11:58:27.964Z,6.62
2018-03-22T12:00:56.330Z,6.54
2018-03-22T12:03:23.831Z,6.51
2018-03-22T12:05:51.222Z,6.57
2018-03-22T12:08:18.651Z,6.41
2018-03-22T12:10:47.260Z,6.39
2018-03-22T12:13:14.981Z,6.35
2018-03-22T12:15:42.346Z,6.17
2018-03-22T12:18:10.670Z,6.27
2018-03-22T12:20:38.049Z,6.33
2018-03-22T12:23:05.528Z,6.61
2018-03-22T12:25:33.233Z,6.68
2018-03-22T12:28:00.634Z,6.72
2018-03-22T12:30:27.998Z,6.89
2018-03-22T12:32:55.442Z,6.97
2018-03-22T12:35:22.974Z,7.04
2018-03-22T12:37:50.539Z,7.19
2018-03-22T12:40:18.035Z,7.20
2018-03-22T12:42:45.571Z,6.84
2018-03-22T12:45:13.000Z,6.62
2018-03-22T12:47:40.382Z,6.54
2018-03-22T12:50:08.550Z,6.35
2018-03-22T12:52:35.889Z,6.34
2018-03-22T12:55:03.394Z,6.29
2018-03-22T12:57:30.791Z,6.17
2018-03-22T12:59:58.409Z,5.92
2018-03-22T13:02:25.771Z,5.93
2018-03-22T13:04:53.151Z,5.76
2018-03-22T13:07:20.586Z,5.48
2018-03-22T13:09:48.270Z,5.48
2018-03-22T13:12:16.519Z,5.64
2018-03-22T13:14:43.902Z,5.12
2018-03-22T13:17:11.295Z,5.38
2018-03-22T13:19:38.715Z,5.35
2018-03-22T13:22:06.181Z,5.25
2018-03-22T13:24:33.609Z,5.06
2018-03-22T13:27:00.993Z,4.87
2018-03-22T13:29:28.312Z,4.61
2018-03-22T13:31:55.650Z,4.42
2018-03-22T13:34:23.036Z,4.14
2018-03-22T13:36:51.271Z,4.26
2018-03-22T13:39:18.599Z,4.27
2018-03-22T13:41:46.051Z,4.00
2018-03-22T13:44:13.395Z,3.98
2018-03-22T13:46:40.754Z,3.96
2018-03-22T13:49:08.216Z,3.88
2018-03-22T13:51:35.546Z,3.96
2018-03-22T13:54:03.658Z,4.21
2018-03-22T13:56:31.006Z,4.40
2018-03-22T13:58:58.363Z,4.54
2018-03-22T14:01:25.703Z,4.65
2018-03-22T14:03:53.935Z,4.87
2018-03-22T14:06:21.284Z,4.94
2018-03-22T14:08:48.614Z,4.90
2018-03-22T14:11:15.970Z,4.82
2018-03-22T14:13:43.356Z,4.66
2018-03-22T14:16:10.727Z,4.77
2018-03-22T14:18:38.103Z,4.84
2018-03-22T14:21:05.498Z,4.69
2018-03-22T14:23:32.902Z,4.78
2018-03-22T14:26:00.248Z,4.75
2018-03-22T14:28:27.606Z,4.80
2018-03-22T14:30:54.998Z,4.87
2018-03-22T14:33:23.190Z,4.71
2018-03-22T14:35:50.566Z,4.58
2018-03-22T14:38:18.010Z,4.64
2018-03-22T14:40:45.377Z,4.74
2018-03-22T14:43:12.742Z,4.67
2018-03-22T14:45:40.126Z,4.46
2018-03-22T14:48:07.474Z,4.46
2018-03-22T14:50:35.800Z,4.43
2018-03-22T14:53:03.165Z,4.35
2018-03-22T14:55:30.583Z,4.25
2018-03-22T14:57:57.904Z,4.22
2018-03-22T15:00:25.954Z,4.24
2018-03-22T15:02:53.338Z,4.03
2018-03-22T15:05:20.751Z,4.05
2018-03-22T15:07:48.107Z,3.90
2018-03-22T15:10:16.222Z,3.85
2018-03-22T15:12:43.620Z,3.81
2018-03-22T15:15:10.972Z,3.67
2018-03-22T15:17:38.303Z,3.52
2018-03-22T15:20:05.718Z,3.46
2018-03-22T15:22:33.035Z,3.42
2018-03-22T15:25:00.423Z,3.40
2018-03-22T15:27:27.734Z,3.23
2018-03-22T15:29:55.042Z,3.36
2018-03-22T15:32:22.346Z,3.25
2018-03-22T15:34:50.563Z,3.19
2018-03-22T15:37:18.675Z,3.20
2018-03-22T15:39:46.071Z,3.25
2018-03-22T15:42:13.407Z,3.17
2018-03-22T15:44:40.853Z,3.02
2018-03-22T15:47:08.230Z,2.92
2018-03-22T15:49:35.598Z,2.76
2018-03-22T15:52:02.991Z,2.87
2018-03-22T15:54:30.390Z,2.84
2018-03-22T15:57:01.838Z,2.83
2018-03-22T15:59:29.218Z,2.72
2018-03-22T16:01:57.136Z,2.61
2018-03-22T16:04:24.564Z,2.47
2018-03-22T16:06:51.946Z,2.57
2018-03-22T16:09:19.354Z,2.56
2018-03-22T16:11:46.728Z,2.51
2018-03-22T16:14:14.121Z,2.36
2018-03-22T16:16:41.459Z,2.38
2018-03-22T16:19:08.837Z,2.34
2018-03-22T16:21:36.216Z,2.23
2018-03-22T16:24:03.579Z,2.39
2018-03-22T16:26:32.360Z,2.36
2018-03-22T16:28:59.918Z,2.38
2018-03-22T16:31:27.283Z,2.37
2018-03-22T16:33:54.634Z,2.36
2018-03-22T16:36:22.027Z,2.44
2018-03-22T16:38:49.414Z,2.34
2018-03-22T16:41:16.820Z,2.36
2018-03-22T16:43:44.419Z,2.28
2018-03-22T16:46:11.777Z,2.20
2018-03-22T16:48:39.189Z,2.15
2018-03-22T16:51:07.471Z,2.21
2018-03-22T16:53:34.914Z,2.15
2018-03-22T16:56:03.008Z,2.20
2018-03-22T16:58:30.437Z,2.17
2018-03-22T17:00:57.871Z,2.15
2018-03-22T17:03:25.323Z,1.98
2018-03-22T17:05:52.678Z,1.94
2018-03-22T17:08:20.062Z,1.88
2018-03-22T17:10:47.414Z,1.84
2018-03-22T17:13:15.058Z,1.79
2018-03-22T17:15:42.385Z,1.98
2018-03-22T17:18:09.738Z,1.94
2018-03-22T17:20:37.456Z,1.90
2018-03-22T17:23:04.833Z,1.92
2018-03-22T17:25:32.242Z,1.92
2018-03-22T17:27:59.636Z,1.98
2018-03-22T17:30:26.996Z,2.02
2018-03-22T17:32:54.349Z,1.99
2018-03-22T17:35:21.682Z,1.98
2018-03-22T17:37:49.731Z,2.07
2018-03-22T17:40:17.108Z,2.08
2018-03-22T17:42:44.491Z,2.05
2018-03-22T17:45:11.834Z,2.10
2018-03-22T17:47:39.568Z,2.09
2018-03-22T17:50:06.997Z,2.14
2018-03-22T17:52:34.350Z,2.12
2018-03-22T17:55:01.770Z,2.13
2018-03-22T17:57:29.202Z,2.01
2018-03-22T17:59:56.513Z,2.01
2018-03-22T18:02:23.967Z,2.05
2018-03-22T18:04:51.328Z,1.97
2018-03-22T18:07:18.732Z,1.93
2018-03-22T18:09:46.091Z,1.85
2018-03-22T18:12:13.499Z,1.82
2018-03-22T18:14:41.647Z,1.87
2018-03-22T18:17:09.019Z,1.81
2018-03-22T18:19:36.420Z,1.75
2018-03-22T18:22:03.769Z,1.73
2018-03-22T18:24:31.199Z,1.71
2018-03-22T18:26:58.638Z,1.61
2018-03-22T18:29:25.991Z,1.52
2018-03-22T18:31:53.339Z,1.49
2018-03-22T18:34:21.607Z,1.49
2018-03-22T18:36:48.982Z,1.42
2018-03-22T18:39:16.346Z,1.41
2018-03-22T18:41:43.717Z,1.43
2018-03-22T18:44:11.120Z,1.38
2018-03-22T18:46:38.451Z,1.36
2018-03-22T18:49:05.954Z,1.32
2018-03-22T18:51:33.319Z,1.25
2018-03-22T18:54:00.719Z,1.28
2018-03-22T18:56:28.536Z,1.37
2018-03-22T18:58:56.013Z,1.37
2018-03-22T19:01:24.196Z,1.31
2018-03-22T19:03:51.600Z,1.40
2018-03-22T19:06:18.963Z,1.39
2018-03-22T19:08:46.353Z,1.38
2018-03-22T19:11:13.736Z,1.38
2018-03-22T19:13:41.132Z,1.26
2018-03-22T19:16:08.590Z,1.25
2018-03-22T19:18:35.983Z,1.28
2018-03-22T19:21:03.356Z,1.34
2018-03-22T19:23:30.704Z,1.30
2018-03-22T19:25:58.799Z,1.30
2018-03-22T19:28:26.212Z,1.28
2018-03-22T19:30:53.603Z,1.31
2018-03-22T19:33:20.990Z,1.45
2018-03-22T19:35:48.412Z,1.35
2018-03-22T19:38:15.829Z,1.29
2018-03-22T19:40:44.570Z,1.33
2018-03-22T19:43:11.922Z,1.30
2018-03-22T19:45:39.269Z,1.30
2018-03-22T19:48:06.888Z,1.25
2018-03-22T19:50:35.313Z,1.27
2018-03-22T19:53:02.669Z,1.27
2018-03-22T19:55:30.383Z,1.26
2018-03-22T19:57:57.739Z,1.26
2018-03-22T20:00:25.642Z,1.23
2018-03-22T20:02:53.263Z,1.27
2018-03-22T20:05:20.682Z,1.25
2018-03-22T20:07:48.071Z,1.18
2018-03-22T20:10:19.231Z,1.22
2018-03-22T20:12:47.665Z,1.33
2018-03-22T20:15:15.369Z,1.35
2018-03-22T20:17:42.784Z,1.29
2018-03-22T20:20:10.143Z,1.30
2018-03-22T20:22:37.575Z,1.33
2018-03-22T20:25:05.680Z,1.32
2018-03-22T20:27:33.037Z,1.36
2018-03-22T20:30:00.423Z,1.35
2018-03-22T20:32:27.791Z,1.26
2018-03-22T20:34:55.148Z,1.29
2018-03-22T20:37:22.559Z,1.28
2018-03-22T20:39:49.954Z,1.31
2018-03-22T20:42:18.090Z,1.35
2018-03-22T20:44:45.441Z,1.41
2018-03-22T20:47:12.805Z,1.39
2018-03-22T20:49:40.191Z,1.46
2018-03-22T20:52:07.596Z,1.50
2018-03-22T20:54:34.954Z,1.45
2018-03-22T20:57:02.350Z,1.44
2018-03-22T20:59:29.709Z,1.40
2018-03-22T21:01:57.072Z,1.42
2018-03-22T21:04:24.438Z,1.42
2018-03-22T21:06:51.778Z,1.43
2018-03-22T21:09:19.868Z,1.44
2018-03-22T21:11:48.249Z,1.45
2018-03-22T21:14:15.619Z,1.47
2018-03-22T21:16:43.188Z,1.48
2018-03-22T21:19:10.592Z,1.49
2018-03-22T21:21:37.996Z,1.56
2018-03-22T21:24:05.389Z,1.48
2018-03-22T21:26:32.798Z,1.41
2018-03-22T21:29:00.303Z,1.42
2018-03-22T21:31:27.659Z,1.47
2018-03-22T21:33:55.011Z,1.44
2018-03-22T21:36:23.486Z,1.45
2018-03-22T21:38:50.861Z,1.44
2018-03-22T21:41:18.949Z,1.48
2018-03-22T21:44:18.387Z,1.53
2018-03-22T21:46:45.764Z,1.57
2018-03-22T21:49:13.248Z,1.61
2018-03-22T21:51:40.650Z,1.57
2018-03-22T21:54:07.966Z,1.55
2018-03-22T21:56:35.418Z,1.52
2018-03-22T21:59:02.903Z,1.52
2018-03-22T22:01:30.254Z,1.43
2018-03-22T22:03:57.580Z,1.42
2018-03-22T22:06:24.957Z,1.41
2018-03-22T22:08:52.319Z,1.41
2018-03-22T22:11:19.779Z,1.39
2018-03-22T22:13:47.174Z,1.43
2018-03-22T22:16:14.744Z,1.43
2018-03-22T22:18:43.217Z,1.46
2018-03-22T22:21:10.570Z,1.49
2018-03-22T22:23:37.990Z,1.54
2018-03-22T22:26:05.426Z,1.52
2018-03-22T22:28:32.760Z,1.55
2018-03-22T22:31:00.116Z,1.56
2018-03-22T22:33:28.328Z,1.57
2018-03-22T22:35:55.744Z,1.53
2018-03-22T22:38:23.835Z,1.56
2018-03-22T22:40:51.212Z,1.53
2018-03-22T22:43:18.598Z,1.53
2018-03-22T22:45:45.967Z,1.54
2018-03-22T22:48:13.327Z,1.55
2018-03-22T22:50:40.682Z,1.50
2018-03-22T22:53:08.022Z,1.47
2018-03-22T22:55:35.552Z,1.54
2018-03-22T22:58:02.991Z,1.48
2018-03-22T23:00:30.331Z,1.47
2018-03-22T23:02:57.731Z,1.45
2018-03-22T23:05:25.091Z,1.50
2018-03-22T23:07:52.703Z,1.44
2018-03-22T23:10:20.034Z,1.46
2018-03-22T23:12:47.382Z,1.52
2018-03-22T23:15:14.783Z,1.56
2018-03-22T23:17:42.912Z,1.59
2018-03-22T23:20:10.982Z,1.53
2018-03-22T23:22:38.373Z,1.55
2018-03-22T23:25:06.092Z,1.55
2018-03-22T23:27:33.501Z,1.57
2018-03-22T23:30:00.956Z,1.59
2018-03-22T23:32:28.371Z,1.61
2018-03-22T23:34:55.806Z,1.62
2018-03-22T23:37:23.315Z,1.64
2018-03-22T23:39:50.628Z,1.64
2018-03-22T23:42:17.968Z,1.62
2018-03-22T23:44:45.341Z,1.65
2018-03-22T23:47:12.659Z,1.64
2018-03-22T23:49:40.020Z,1.56
2018-03-22T23:52:07.357Z,1.59
2018-03-22T23:54:34.831Z,1.59
2018-03-22T23:57:02.284Z,1.63
2018-03-22T23:59:29.767Z,1.62
